sensor_id;sensor_type;location;lat;lon;timestamp;temperature;humidity
24338;DHT22;12457;50.832;4.346;2023-05-31T00:01:08;13.60;99.90
24338;DHT22;12457;50.832;4.346;2023-05-31T00:03:34;13.50;99.90
24338;DHT22;12457;50.832;4.346;2023-05-31T00:06:02;13.50;99.90
24338;DHT22;12457;50.832;4.346;2023-05-31T00:08:27;13.50;99.90
24338;DHT22;12457;50.832;4.346;2023-05-31T00:10:53;13.50;99.90
24338;DHT22;12457;50.832;4.346;2023-05-31T00:13:19;13.50;99.90
24338;DHT22;12457;50.832;4.346;2023-05-31T00:15:46;13.50;99.90
24338;DHT22;12457;50.832;4.346;2023-05-31T00:18:12;13.50;99.90
24338;DHT22;12457;50.832;4.346;2023-05-31T00:20:37;13.50;99.90
24338;DHT22;12457;50.832;4.346;2023-05-31T00:23:03;13.50;99.90
24338;DHT22;12457;50.832;4.346;2023-05-31T00:25:28;13.50;99.90
24338;DHT22;12457;50.832;4.346;2023-05-31T00:27:54;13.60;99.90
24338;DHT22;12457;50.832;4.346;2023-05-31T00:30:21;13.50;99.90
24338;DHT22;12457;50.832;4.346;2023-05-31T00:32:46;13.50;99.90
24338;DHT22;12457;50.832;4.346;2023-05-31T00:35:12;13.50;99.90
24338;DHT22;12457;50.832;4.346;2023-05-31T00:37:38;13.50;99.90
24338;DHT22;12457;50.832;4.346;2023-05-31T00:40:04;13.40;99.90
24338;DHT22;12457;50.832;4.346;2023-05-31T00:42:31;13.40;99.90
24338;DHT22;12457;50.832;4.346;2023-05-31T00:44:57;13.40;99.90
24338;DHT22;12457;50.832;4.346;2023-05-31T00:47:24;13.40;99.90
24338;DHT22;12457;50.832;4.346;2023-05-31T00:49:52;13.30;99.90
24338;DHT22;12457;50.832;4.346;2023-05-31T00:52:18;13.40;99.90
24338;DHT22;12457;50.832;4.346;2023-05-31T00:54:43;13.30;99.90
24338;DHT22;12457;50.832;4.346;2023-05-31T00:57:10;13.30;99.90
24338;DHT22;12457;50.832;4.346;2023-05-31T00:59:36;13.20;99.90
24338;DHT22;12457;50.832;4.346;2023-05-31T01:02:06;13.20;99.90
24338;DHT22;12457;50.832;4.346;2023-05-31T01:04:33;13.20;99.90
24338;DHT22;12457;50.832;4.346;2023-05-31T01:07:00;13.20;99.90
24338;DHT22;12457;50.832;4.346;2023-05-31T01:09:27;13.20;99.90
24338;DHT22;12457;50.832;4.346;2023-05-31T01:17:40;13.10;99.90
24338;DHT22;12457;50.832;4.346;2023-05-31T01:20:11;13.10;99.90
24338;DHT22;12457;50.832;4.346;2023-05-31T01:22:43;13.10;99.90
24338;DHT22;12457;50.832;4.346;2023-05-31T01:27:47;13.00;99.90
24338;DHT22;12457;50.832;4.346;2023-05-31T01:30:16;13.00;99.90
24338;DHT22;12457;50.832;4.346;2023-05-31T01:32:42;12.90;99.90
24338;DHT22;12457;50.832;4.346;2023-05-31T01:35:09;12.90;99.90
24338;DHT22;12457;50.832;4.346;2023-05-31T01:37:35;12.80;99.90
24338;DHT22;12457;50.832;4.346;2023-05-31T01:40:01;12.80;99.90
24338;DHT22;12457;50.832;4.346;2023-05-31T01:42:30;12.80;99.90
24338;DHT22;12457;50.832;4.346;2023-05-31T01:44:56;12.80;99.90
24338;DHT22;12457;50.832;4.346;2023-05-31T01:47:23;12.90;99.90
24338;DHT22;12457;50.832;4.346;2023-05-31T01:49:50;12.90;99.90
24338;DHT22;12457;50.832;4.346;2023-05-31T01:52:19;12.90;99.90
24338;DHT22;12457;50.832;4.346;2023-05-31T01:54:46;12.90;99.90
24338;DHT22;12457;50.832;4.346;2023-05-31T01:57:12;12.80;99.90
24338;DHT22;12457;50.832;4.346;2023-05-31T01:59:41;12.80;99.90
24338;DHT22;12457;50.832;4.346;2023-05-31T02:02:07;12.70;99.90
24338;DHT22;12457;50.832;4.346;2023-05-31T02:04:38;12.70;99.90
24338;DHT22;12457;50.832;4.346;2023-05-31T02:07:04;12.60;99.90
24338;DHT22;12457;50.832;4.346;2023-05-31T02:09:30;12.50;99.90
24338;DHT22;12457;50.832;4.346;2023-05-31T02:11:55;12.50;99.90
24338;DHT22;12457;50.832;4.346;2023-05-31T02:14:21;12.40;99.90
24338;DHT22;12457;50.832;4.346;2023-05-31T02:16:47;12.40;99.90
24338;DHT22;12457;50.832;4.346;2023-05-31T02:19:18;12.50;99.90
24338;DHT22;12457;50.832;4.346;2023-05-31T02:21:44;12.50;99.90
24338;DHT22;12457;50.832;4.346;2023-05-31T02:24:11;12.40;99.90
24338;DHT22;12457;50.832;4.346;2023-05-31T02:26:37;12.40;99.90
24338;DHT22;12457;50.832;4.346;2023-05-31T02:29:02;12.30;99.90
24338;DHT22;12457;50.832;4.346;2023-05-31T02:31:28;12.30;99.90
24338;DHT22;12457;50.832;4.346;2023-05-31T02:33:54;12.30;99.90
24338;DHT22;12457;50.832;4.346;2023-05-31T02:36:20;12.30;99.90
24338;DHT22;12457;50.832;4.346;2023-05-31T02:38:46;12.20;99.90
24338;DHT22;12457;50.832;4.346;2023-05-31T02:41:11;12.30;99.90
24338;DHT22;12457;50.832;4.346;2023-05-31T02:43:37;12.30;99.90
24338;DHT22;12457;50.832;4.346;2023-05-31T02:46:03;12.20;99.90
24338;DHT22;12457;50.832;4.346;2023-05-31T02:48:28;12.20;99.90
24338;DHT22;12457;50.832;4.346;2023-05-31T02:50:55;12.20;99.90
24338;DHT22;12457;50.832;4.346;2023-05-31T02:53:21;12.10;99.90
24338;DHT22;12457;50.832;4.346;2023-05-31T02:55:47;12.10;99.90
24338;DHT22;12457;50.832;4.346;2023-05-31T02:58:12;12.10;99.90
24338;DHT22;12457;50.832;4.346;2023-05-31T03:00:40;12.10;99.90
24338;DHT22;12457;50.832;4.346;2023-05-31T03:03:06;12.00;99.90
24338;DHT22;12457;50.832;4.346;2023-05-31T03:05:31;12.00;99.90
24338;DHT22;12457;50.832;4.346;2023-05-31T03:07:59;12.00;99.90
24338;DHT22;12457;50.832;4.346;2023-05-31T03:10:24;12.00;99.90
24338;DHT22;12457;50.832;4.346;2023-05-31T03:12:50;12.00;99.90
24338;DHT22;12457;50.832;4.346;2023-05-31T03:15:16;12.00;99.90
24338;DHT22;12457;50.832;4.346;2023-05-31T03:17:41;11.90;99.90
24338;DHT22;12457;50.832;4.346;2023-05-31T03:20:07;11.90;99.90
24338;DHT22;12457;50.832;4.346;2023-05-31T03:22:34;11.90;99.90
24338;DHT22;12457;50.832;4.346;2023-05-31T03:25:01;11.90;99.90
24338;DHT22;12457;50.832;4.346;2023-05-31T03:27:28;11.90;99.90
24338;DHT22;12457;50.832;4.346;2023-05-31T03:29:54;11.80;99.90
24338;DHT22;12457;50.832;4.346;2023-05-31T03:32:22;11.90;99.90
24338;DHT22;12457;50.832;4.346;2023-05-31T03:34:47;11.80;99.90
24338;DHT22;12457;50.832;4.346;2023-05-31T03:37:13;11.90;99.90
24338;DHT22;12457;50.832;4.346;2023-05-31T03:39:39;11.90;99.90
24338;DHT22;12457;50.832;4.346;2023-05-31T03:42:05;11.80;99.90
24338;DHT22;12457;50.832;4.346;2023-05-31T03:44:31;11.80;99.90
24338;DHT22;12457;50.832;4.346;2023-05-31T03:46:58;11.80;99.90
24338;DHT22;12457;50.832;4.346;2023-05-31T03:49:24;11.80;99.90
24338;DHT22;12457;50.832;4.346;2023-05-31T03:51:50;11.70;99.90
24338;DHT22;12457;50.832;4.346;2023-05-31T03:54:17;11.80;99.90
24338;DHT22;12457;50.832;4.346;2023-05-31T03:56:42;11.90;99.90
24338;DHT22;12457;50.832;4.346;2023-05-31T03:59:08;11.90;99.90
24338;DHT22;12457;50.832;4.346;2023-05-31T04:01:34;11.80;99.90
24338;DHT22;12457;50.832;4.346;2023-05-31T04:04:37;11.80;99.90
24338;DHT22;12457;50.832;4.346;2023-05-31T04:07:03;11.80;99.90
24338;DHT22;12457;50.832;4.346;2023-05-31T04:09:28;11.80;99.90
24338;DHT22;12457;50.832;4.346;2023-05-31T04:11:55;11.80;99.90
24338;DHT22;12457;50.832;4.346;2023-05-31T04:14:20;11.80;99.90
24338;DHT22;12457;50.832;4.346;2023-05-31T04:16:46;11.80;99.90
24338;DHT22;12457;50.832;4.346;2023-05-31T04:19:15;11.90;99.90
24338;DHT22;12457;50.832;4.346;2023-05-31T04:21:40;11.90;99.90
24338;DHT22;12457;50.832;4.346;2023-05-31T04:24:06;11.90;99.90
24338;DHT22;12457;50.832;4.346;2023-05-31T04:26:32;11.90;99.90
24338;DHT22;12457;50.832;4.346;2023-05-31T04:28:59;11.90;99.90
24338;DHT22;12457;50.832;4.346;2023-05-31T04:31:25;11.90;99.90
24338;DHT22;12457;50.832;4.346;2023-05-31T04:33:55;11.90;99.90
24338;DHT22;12457;50.832;4.346;2023-05-31T04:36:25;12.10;99.90
24338;DHT22;12457;50.832;4.346;2023-05-31T04:38:51;12.40;99.90
24338;DHT22;12457;50.832;4.346;2023-05-31T04:41:21;12.70;99.90
24338;DHT22;12457;50.832;4.346;2023-05-31T04:43:51;13.00;99.90
24338;DHT22;12457;50.832;4.346;2023-05-31T04:46:18;13.20;99.90
24338;DHT22;12457;50.832;4.346;2023-05-31T04:48:45;13.30;99.90
24338;DHT22;12457;50.832;4.346;2023-05-31T04:51:18;13.60;99.90
24338;DHT22;12457;50.832;4.346;2023-05-31T04:53:45;13.80;99.90
24338;DHT22;12457;50.832;4.346;2023-05-31T04:56:14;14.00;99.90
24338;DHT22;12457;50.832;4.346;2023-05-31T04:58:40;14.20;99.90
24338;DHT22;12457;50.832;4.346;2023-05-31T05:01:06;14.30;99.90
24338;DHT22;12457;50.832;4.346;2023-05-31T05:03:33;14.40;99.90
24338;DHT22;12457;50.832;4.346;2023-05-31T05:06:01;14.60;99.90
24338;DHT22;12457;50.832;4.346;2023-05-31T05:08:36;14.80;99.90
24338;DHT22;12457;50.832;4.346;2023-05-31T05:11:02;14.80;99.90
24338;DHT22;12457;50.832;4.346;2023-05-31T05:13:28;15.10;99.90
24338;DHT22;12457;50.832;4.346;2023-05-31T05:15:55;15.40;99.90
24338;DHT22;12457;50.832;4.346;2023-05-31T05:18:21;15.30;99.90
24338;DHT22;12457;50.832;4.346;2023-05-31T05:20:47;15.40;99.90
24338;DHT22;12457;50.832;4.346;2023-05-31T05:23:12;15.70;99.90
24338;DHT22;12457;50.832;4.346;2023-05-31T05:25:38;15.60;99.90
24338;DHT22;12457;50.832;4.346;2023-05-31T05:28:03;15.70;99.90
24338;DHT22;12457;50.832;4.346;2023-05-31T05:30:29;15.70;99.90
24338;DHT22;12457;50.832;4.346;2023-05-31T05:32:55;15.90;99.90
24338;DHT22;12457;50.832;4.346;2023-05-31T05:35:33;15.80;99.90
24338;DHT22;12457;50.832;4.346;2023-05-31T05:37:59;16.10;99.90
24338;DHT22;12457;50.832;4.346;2023-05-31T05:40:25;16.30;99.90
24338;DHT22;12457;50.832;4.346;2023-05-31T05:42:52;16.30;99.90
24338;DHT22;12457;50.832;4.346;2023-05-31T05:45:18;16.20;99.90
24338;DHT22;12457;50.832;4.346;2023-05-31T05:47:44;16.30;99.90
24338;DHT22;12457;50.832;4.346;2023-05-31T05:50:11;16.60;99.90
24338;DHT22;12457;50.832;4.346;2023-05-31T05:52:38;16.90;99.90
24338;DHT22;12457;50.832;4.346;2023-05-31T05:55:04;17.00;99.90
24338;DHT22;12457;50.832;4.346;2023-05-31T05:57:30;17.20;99.90
24338;DHT22;12457;50.832;4.346;2023-05-31T05:59:56;17.10;99.90
24338;DHT22;12457;50.832;4.346;2023-05-31T06:02:22;17.10;99.90
24338;DHT22;12457;50.832;4.346;2023-05-31T06:04:50;16.80;99.90
24338;DHT22;12457;50.832;4.346;2023-05-31T06:07:16;16.70;99.90
24338;DHT22;12457;50.832;4.346;2023-05-31T06:09:42;16.80;99.90
24338;DHT22;12457;50.832;4.346;2023-05-31T06:12:08;17.20;99.90
24338;DHT22;12457;50.832;4.346;2023-05-31T06:14:37;17.10;99.90
24338;DHT22;12457;50.832;4.346;2023-05-31T06:17:03;17.20;99.90
24338;DHT22;12457;50.832;4.346;2023-05-31T06:19:41;17.50;99.90
24338;DHT22;12457;50.832;4.346;2023-05-31T06:22:06;17.60;99.90
24338;DHT22;12457;50.832;4.346;2023-05-31T06:24:32;17.80;99.90
24338;DHT22;12457;50.832;4.346;2023-05-31T06:26:58;17.80;99.90
24338;DHT22;12457;50.832;4.346;2023-05-31T06:29:24;17.70;99.90
24338;DHT22;12457;50.832;4.346;2023-05-31T06:31:50;17.70;99.90
24338;DHT22;12457;50.832;4.346;2023-05-31T06:34:15;17.50;99.90
24338;DHT22;12457;50.832;4.346;2023-05-31T06:36:42;17.70;99.90
24338;DHT22;12457;50.832;4.346;2023-05-31T06:39:07;18.20;99.90
24338;DHT22;12457;50.832;4.346;2023-05-31T06:41:34;18.40;99.90
24338;DHT22;12457;50.832;4.346;2023-05-31T06:44:01;18.40;99.90
24338;DHT22;12457;50.832;4.346;2023-05-31T06:46:27;18.60;99.90
24338;DHT22;12457;50.832;4.346;2023-05-31T06:48:53;18.80;99.90
24338;DHT22;12457;50.832;4.346;2023-05-31T06:51:25;19.40;99.90
24338;DHT22;12457;50.832;4.346;2023-05-31T06:53:51;19.30;99.90
24338;DHT22;12457;50.832;4.346;2023-05-31T06:56:16;18.90;99.90
24338;DHT22;12457;50.832;4.346;2023-05-31T06:58:43;18.60;99.90
24338;DHT22;12457;50.832;4.346;2023-05-31T07:01:10;18.80;99.90
24338;DHT22;12457;50.832;4.346;2023-05-31T07:03:39;19.30;99.90
24338;DHT22;12457;50.832;4.346;2023-05-31T07:06:06;19.10;99.90
24338;DHT22;12457;50.832;4.346;2023-05-31T07:08:32;19.00;99.90
24338;DHT22;12457;50.832;4.346;2023-05-31T07:10:57;18.60;99.90
24338;DHT22;12457;50.832;4.346;2023-05-31T07:13:23;18.70;99.90
24338;DHT22;12457;50.832;4.346;2023-05-31T07:15:49;19.20;99.90
24338;DHT22;12457;50.832;4.346;2023-05-31T07:18:14;18.80;99.90
24338;DHT22;12457;50.832;4.346;2023-05-31T07:20:40;18.40;99.90
24338;DHT22;12457;50.832;4.346;2023-05-31T07:23:06;18.40;99.90
24338;DHT22;12457;50.832;4.346;2023-05-31T07:25:31;18.80;99.90
24338;DHT22;12457;50.832;4.346;2023-05-31T07:27:57;19.30;99.90
24338;DHT22;12457;50.832;4.346;2023-05-31T07:30:23;19.50;99.90
24338;DHT22;12457;50.832;4.346;2023-05-31T07:32:49;19.70;99.90
24338;DHT22;12457;50.832;4.346;2023-05-31T07:35:14;19.50;99.90
24338;DHT22;12457;50.832;4.346;2023-05-31T07:37:40;19.50;99.90
24338;DHT22;12457;50.832;4.346;2023-05-31T07:40:07;19.70;99.90
24338;DHT22;12457;50.832;4.346;2023-05-31T07:42:33;20.00;99.90
24338;DHT22;12457;50.832;4.346;2023-05-31T07:44:59;19.70;99.90
24338;DHT22;12457;50.832;4.346;2023-05-31T07:47:25;19.60;99.90
24338;DHT22;12457;50.832;4.346;2023-05-31T07:49:51;19.80;99.90
24338;DHT22;12457;50.832;4.346;2023-05-31T07:52:18;19.70;99.90
24338;DHT22;12457;50.832;4.346;2023-05-31T07:54:50;19.40;99.90
24338;DHT22;12457;50.832;4.346;2023-05-31T07:57:16;19.50;99.90
24338;DHT22;12457;50.832;4.346;2023-05-31T07:59:43;19.10;99.90
24338;DHT22;12457;50.832;4.346;2023-05-31T08:02:09;19.20;99.90
24338;DHT22;12457;50.832;4.346;2023-05-31T08:04:34;19.40;99.90
24338;DHT22;12457;50.832;4.346;2023-05-31T08:07:00;19.40;99.90
24338;DHT22;12457;50.832;4.346;2023-05-31T08:09:26;19.00;99.90
24338;DHT22;12457;50.832;4.346;2023-05-31T08:11:52;18.70;99.90
24338;DHT22;12457;50.832;4.346;2023-05-31T08:14:19;18.60;99.90
24338;DHT22;12457;50.832;4.346;2023-05-31T08:16:46;18.50;99.90
24338;DHT22;12457;50.832;4.346;2023-05-31T08:19:14;18.50;99.90
24338;DHT22;12457;50.832;4.346;2023-05-31T08:21:43;18.40;99.90
24338;DHT22;12457;50.832;4.346;2023-05-31T08:24:10;18.40;99.90
24338;DHT22;12457;50.832;4.346;2023-05-31T08:26:36;18.50;99.90
24338;DHT22;12457;50.832;4.346;2023-05-31T08:29:02;18.50;99.90
24338;DHT22;12457;50.832;4.346;2023-05-31T08:31:28;18.60;99.90
24338;DHT22;12457;50.832;4.346;2023-05-31T08:33:58;18.60;99.90
24338;DHT22;12457;50.832;4.346;2023-05-31T08:36:27;18.60;99.90
24338;DHT22;12457;50.832;4.346;2023-05-31T08:38:53;18.60;99.90
24338;DHT22;12457;50.832;4.346;2023-05-31T08:41:19;18.60;99.90
24338;DHT22;12457;50.832;4.346;2023-05-31T08:43:45;18.60;99.90
24338;DHT22;12457;50.832;4.346;2023-05-31T08:46:14;18.70;99.90
24338;DHT22;12457;50.832;4.346;2023-05-31T08:49:00;18.90;99.90
24338;DHT22;12457;50.832;4.346;2023-05-31T08:51:28;19.00;99.90
24338;DHT22;12457;50.832;4.346;2023-05-31T08:53:56;19.10;99.90
24338;DHT22;12457;50.832;4.346;2023-05-31T08:56:23;19.10;99.90
24338;DHT22;12457;50.832;4.346;2023-05-31T08:58:50;19.00;99.90
24338;DHT22;12457;50.832;4.346;2023-05-31T09:01:20;19.10;99.90
24338;DHT22;12457;50.832;4.346;2023-05-31T09:03:45;19.30;99.90
24338;DHT22;12457;50.832;4.346;2023-05-31T09:06:12;19.30;99.90
24338;DHT22;12457;50.832;4.346;2023-05-31T09:08:38;19.30;99.90
24338;DHT22;12457;50.832;4.346;2023-05-31T09:11:05;19.30;99.90
24338;DHT22;12457;50.832;4.346;2023-05-31T09:13:31;19.40;99.90
24338;DHT22;12457;50.832;4.346;2023-05-31T09:15:57;19.40;99.90
24338;DHT22;12457;50.832;4.346;2023-05-31T09:18:23;19.50;99.90
24338;DHT22;12457;50.832;4.346;2023-05-31T09:20:55;19.60;99.90
24338;DHT22;12457;50.832;4.346;2023-05-31T09:23:21;19.70;99.90
24338;DHT22;12457;50.832;4.346;2023-05-31T09:25:51;19.70;99.90
24338;DHT22;12457;50.832;4.346;2023-05-31T09:28:18;19.70;99.90
24338;DHT22;12457;50.832;4.346;2023-05-31T09:30:44;19.80;99.90
24338;DHT22;12457;50.832;4.346;2023-05-31T09:33:12;19.90;99.90
24338;DHT22;12457;50.832;4.346;2023-05-31T09:35:37;20.00;99.90
24338;DHT22;12457;50.832;4.346;2023-05-31T09:38:34;20.10;99.90
24338;DHT22;12457;50.832;4.346;2023-05-31T09:41:19;20.10;99.90
24338;DHT22;12457;50.832;4.346;2023-05-31T09:43:47;20.30;99.90
24338;DHT22;12457;50.832;4.346;2023-05-31T09:46:20;20.50;99.90
24338;DHT22;12457;50.832;4.346;2023-05-31T09:51:23;20.50;99.90
24338;DHT22;12457;50.832;4.346;2023-05-31T09:53:49;20.50;99.90
24338;DHT22;12457;50.832;4.346;2023-05-31T09:56:19;20.40;99.90
24338;DHT22;12457;50.832;4.346;2023-05-31T09:58:44;20.50;99.90
24338;DHT22;12457;50.832;4.346;2023-05-31T10:01:10;20.80;99.90
24338;DHT22;12457;50.832;4.346;2023-05-31T10:03:37;21.00;99.90
24338;DHT22;12457;50.832;4.346;2023-05-31T10:06:03;21.00;99.90
24338;DHT22;12457;50.832;4.346;2023-05-31T10:08:30;21.00;99.90
24338;DHT22;12457;50.832;4.346;2023-05-31T10:11:00;21.20;99.90
24338;DHT22;12457;50.832;4.346;2023-05-31T10:13:29;21.20;99.90
24338;DHT22;12457;50.832;4.346;2023-05-31T10:15:58;21.30;99.90
24338;DHT22;12457;50.832;4.346;2023-05-31T10:18:28;21.40;99.90
24338;DHT22;12457;50.832;4.346;2023-05-31T10:21:03;21.20;99.90
24338;DHT22;12457;50.832;4.346;2023-05-31T10:27:09;21.30;99.90
24338;DHT22;12457;50.832;4.346;2023-05-31T10:29:43;21.50;99.90
24338;DHT22;12457;50.832;4.346;2023-05-31T10:32:22;21.70;99.90
24338;DHT22;12457;50.832;4.346;2023-05-31T10:34:50;21.80;99.90
24338;DHT22;12457;50.832;4.346;2023-05-31T10:37:40;21.90;99.90
24338;DHT22;12457;50.832;4.346;2023-05-31T10:40:27;21.90;99.70
24338;DHT22;12457;50.832;4.346;2023-05-31T10:43:17;22.10;98.80
24338;DHT22;12457;50.832;4.346;2023-05-31T10:45:48;22.00;96.90
24338;DHT22;12457;50.832;4.346;2023-05-31T10:50:58;22.20;97.90
24338;DHT22;12457;50.832;4.346;2023-05-31T10:53:31;22.30;94.50
24338;DHT22;12457;50.832;4.346;2023-05-31T10:56:07;22.40;93.20
24338;DHT22;12457;50.832;4.346;2023-05-31T10:58:38;22.40;91.50
24338;DHT22;12457;50.832;4.346;2023-05-31T11:01:12;22.50;91.50
24338;DHT22;12457;50.832;4.346;2023-05-31T11:06:13;22.60;90.40
24338;DHT22;12457;50.832;4.346;2023-05-31T11:08:55;22.60;90.90
24338;DHT22;12457;50.832;4.346;2023-05-31T11:11:42;22.60;90.70
24338;DHT22;12457;50.832;4.346;2023-05-31T11:19:15;22.60;89.70
24338;DHT22;12457;50.832;4.346;2023-05-31T11:22:15;22.80;90.20
24338;DHT22;12457;50.832;4.346;2023-05-31T11:24:50;23.00;89.70
24338;DHT22;12457;50.832;4.346;2023-05-31T11:27:17;22.90;88.10
24338;DHT22;12457;50.832;4.346;2023-05-31T11:32:10;23.20;85.80
24338;DHT22;12457;50.832;4.346;2023-05-31T11:34:51;23.20;85.40
24338;DHT22;12457;50.832;4.346;2023-05-31T11:37:20;23.00;85.70
24338;DHT22;12457;50.832;4.346;2023-05-31T11:39:49;23.30;83.70
24338;DHT22;12457;50.832;4.346;2023-05-31T11:42:15;23.50;82.70
24338;DHT22;12457;50.832;4.346;2023-05-31T11:44:45;23.40;82.30
24338;DHT22;12457;50.832;4.346;2023-05-31T11:47:17;23.60;82.30
24338;DHT22;12457;50.832;4.346;2023-05-31T11:49:43;23.50;80.70
24338;DHT22;12457;50.832;4.346;2023-05-31T11:52:15;23.40;81.20
24338;DHT22;12457;50.832;4.346;2023-05-31T11:54:46;23.60;81.70
24338;DHT22;12457;50.832;4.346;2023-05-31T11:57:14;23.70;80.70
24338;DHT22;12457;50.832;4.346;2023-05-31T11:59:40;23.80;79.70
24338;DHT22;12457;50.832;4.346;2023-05-31T12:02:08;23.70;78.10
24338;DHT22;12457;50.832;4.346;2023-05-31T12:04:38;23.60;78.80
24338;DHT22;12457;50.832;4.346;2023-05-31T12:07:23;23.60;78.80
24338;DHT22;12457;50.832;4.346;2023-05-31T12:09:49;23.70;78.20
24338;DHT22;12457;50.832;4.346;2023-05-31T12:12:16;23.90;76.60
24338;DHT22;12457;50.832;4.346;2023-05-31T12:14:51;24.00;75.10
24338;DHT22;12457;50.832;4.346;2023-05-31T12:17:17;23.90;75.80
24338;DHT22;12457;50.832;4.346;2023-05-31T12:19:46;23.90;76.30
24338;DHT22;12457;50.832;4.346;2023-05-31T12:22:12;24.00;76.60
24338;DHT22;12457;50.832;4.346;2023-05-31T12:24:47;23.90;74.90
24338;DHT22;12457;50.832;4.346;2023-05-31T12:27:15;23.80;73.70
24338;DHT22;12457;50.832;4.346;2023-05-31T12:29:41;23.90;72.50
24338;DHT22;12457;50.832;4.346;2023-05-31T12:32:07;24.10;73.90
24338;DHT22;12457;50.832;4.346;2023-05-31T12:34:34;24.10;73.60
24338;DHT22;12457;50.832;4.346;2023-05-31T12:37:05;24.30;73.50
24338;DHT22;12457;50.832;4.346;2023-05-31T12:39:37;24.40;71.80
24338;DHT22;12457;50.832;4.346;2023-05-31T12:42:06;24.20;71.30
24338;DHT22;12457;50.832;4.346;2023-05-31T12:44:34;24.00;72.00
24338;DHT22;12457;50.832;4.346;2023-05-31T12:47:07;23.80;72.60
24338;DHT22;12457;50.832;4.346;2023-05-31T12:49:34;23.90;72.80
24338;DHT22;12457;50.832;4.346;2023-05-31T12:52:05;24.10;72.50
24338;DHT22;12457;50.832;4.346;2023-05-31T12:54:33;24.20;72.30
24338;DHT22;12457;50.832;4.346;2023-05-31T12:57:00;24.30;71.20
24338;DHT22;12457;50.832;4.346;2023-05-31T12:59:30;24.40;70.30
24338;DHT22;12457;50.832;4.346;2023-05-31T13:01:59;24.50;69.40
24338;DHT22;12457;50.832;4.346;2023-05-31T13:04:28;24.60;68.50
24338;DHT22;12457;50.832;4.346;2023-05-31T13:06:54;24.70;67.90
24338;DHT22;12457;50.832;4.346;2023-05-31T13:09:41;24.70;68.50
24338;DHT22;12457;50.832;4.346;2023-05-31T13:12:07;24.70;69.10
24338;DHT22;12457;50.832;4.346;2023-05-31T13:14:33;24.80;68.70
24338;DHT22;12457;50.832;4.346;2023-05-31T13:16:58;24.70;68.40
24338;DHT22;12457;50.832;4.346;2023-05-31T13:19:24;24.80;68.20
24338;DHT22;12457;50.832;4.346;2023-05-31T13:21:50;25.00;68.30
24338;DHT22;12457;50.832;4.346;2023-05-31T13:24:16;24.90;68.40
24338;DHT22;12457;50.832;4.346;2023-05-31T13:26:42;25.00;68.20
24338;DHT22;12457;50.832;4.346;2023-05-31T13:29:07;25.00;68.60
24338;DHT22;12457;50.832;4.346;2023-05-31T13:31:33;24.90;69.50
24338;DHT22;12457;50.832;4.346;2023-05-31T13:33:59;24.90;69.40
24338;DHT22;12457;50.832;4.346;2023-05-31T13:36:25;24.70;69.50
24338;DHT22;12457;50.832;4.346;2023-05-31T13:38:53;24.90;69.20
24338;DHT22;12457;50.832;4.346;2023-05-31T13:41:19;24.90;69.70
24338;DHT22;12457;50.832;4.346;2023-05-31T13:43:48;24.90;68.40
24338;DHT22;12457;50.832;4.346;2023-05-31T13:46:14;25.00;68.20
24338;DHT22;12457;50.832;4.346;2023-05-31T13:48:41;25.10;67.10
24338;DHT22;12457;50.832;4.346;2023-05-31T13:51:08;25.10;67.40
24338;DHT22;12457;50.832;4.346;2023-05-31T13:53:35;25.20;67.40
24338;DHT22;12457;50.832;4.346;2023-05-31T13:56:02;24.80;66.60
24338;DHT22;12457;50.832;4.346;2023-05-31T13:58:34;24.80;66.60
24338;DHT22;12457;50.832;4.346;2023-05-31T14:01:01;25.00;67.20
24338;DHT22;12457;50.832;4.346;2023-05-31T14:03:26;25.10;67.00
24338;DHT22;12457;50.832;4.346;2023-05-31T14:05:53;25.30;66.10
24338;DHT22;12457;50.832;4.346;2023-05-31T14:08:19;25.30;65.50
24338;DHT22;12457;50.832;4.346;2023-05-31T14:10:45;25.30;65.30
24338;DHT22;12457;50.832;4.346;2023-05-31T14:13:10;25.10;65.60
24338;DHT22;12457;50.832;4.346;2023-05-31T14:15:36;24.90;66.70
24338;DHT22;12457;50.832;4.346;2023-05-31T14:18:02;25.00;66.60
24338;DHT22;12457;50.832;4.346;2023-05-31T14:20:28;25.00;67.20
24338;DHT22;12457;50.832;4.346;2023-05-31T14:22:54;25.10;66.80
24338;DHT22;12457;50.832;4.346;2023-05-31T14:25:29;25.10;65.90
24338;DHT22;12457;50.832;4.346;2023-05-31T14:27:55;25.10;65.10
24338;DHT22;12457;50.832;4.346;2023-05-31T14:30:21;25.00;65.30
24338;DHT22;12457;50.832;4.346;2023-05-31T14:32:47;25.10;65.60
24338;DHT22;12457;50.832;4.346;2023-05-31T14:35:13;25.20;65.40
24338;DHT22;12457;50.832;4.346;2023-05-31T14:37:39;25.00;65.50
24338;DHT22;12457;50.832;4.346;2023-05-31T14:40:07;25.10;66.00
24338;DHT22;12457;50.832;4.346;2023-05-31T14:42:33;25.40;66.10
24338;DHT22;12457;50.832;4.346;2023-05-31T14:44:59;25.60;64.70
24338;DHT22;12457;50.832;4.346;2023-05-31T14:47:29;25.50;63.80
24338;DHT22;12457;50.832;4.346;2023-05-31T14:49:55;25.40;63.60
24338;DHT22;12457;50.832;4.346;2023-05-31T14:52:22;25.30;63.80
24338;DHT22;12457;50.832;4.346;2023-05-31T14:54:51;25.30;64.20
24338;DHT22;12457;50.832;4.346;2023-05-31T14:57:17;25.40;63.20
24338;DHT22;12457;50.832;4.346;2023-05-31T14:59:43;25.30;63.60
24338;DHT22;12457;50.832;4.346;2023-05-31T15:02:09;25.30;63.80
24338;DHT22;12457;50.832;4.346;2023-05-31T15:04:35;25.30;64.60
24338;DHT22;12457;50.832;4.346;2023-05-31T15:07:00;25.30;64.70
24338;DHT22;12457;50.832;4.346;2023-05-31T15:09:31;25.30;64.90
24338;DHT22;12457;50.832;4.346;2023-05-31T15:11:57;25.30;65.00
24338;DHT22;12457;50.832;4.346;2023-05-31T15:14:22;25.30;63.90
24338;DHT22;12457;50.832;4.346;2023-05-31T15:16:48;25.40;64.10
24338;DHT22;12457;50.832;4.346;2023-05-31T15:19:14;25.40;63.50
24338;DHT22;12457;50.832;4.346;2023-05-31T15:21:40;25.60;63.40
24338;DHT22;12457;50.832;4.346;2023-05-31T15:24:06;25.30;64.10
24338;DHT22;12457;50.832;4.346;2023-05-31T15:26:31;25.30;64.20
24338;DHT22;12457;50.832;4.346;2023-05-31T15:28:57;25.30;63.90
24338;DHT22;12457;50.832;4.346;2023-05-31T15:31:23;25.40;64.10
24338;DHT22;12457;50.832;4.346;2023-05-31T15:33:49;25.40;63.90
24338;DHT22;12457;50.832;4.346;2023-05-31T15:36:15;25.50;64.40
24338;DHT22;12457;50.832;4.346;2023-05-31T15:38:41;25.50;65.10
24338;DHT22;12457;50.832;4.346;2023-05-31T15:41:07;25.40;64.70
24338;DHT22;12457;50.832;4.346;2023-05-31T15:43:32;25.40;64.70
24338;DHT22;12457;50.832;4.346;2023-05-31T15:45:59;25.40;63.80
24338;DHT22;12457;50.832;4.346;2023-05-31T15:48:25;25.30;63.80
24338;DHT22;12457;50.832;4.346;2023-05-31T15:50:51;25.30;64.50
24338;DHT22;12457;50.832;4.346;2023-05-31T15:53:17;25.40;64.40
24338;DHT22;12457;50.832;4.346;2023-05-31T15:55:43;25.40;63.50
24338;DHT22;12457;50.832;4.346;2023-05-31T15:58:09;25.50;64.00
24338;DHT22;12457;50.832;4.346;2023-05-31T16:00:35;25.30;64.60